Погода Тобрукна неделю

Тобрук, Ливия

18 - 24 июля
  • 18июля
    Сегодня
    +25°
    +32°
    Ясно и безоблачно
    ВремяПогодаТемператураВлажностьДавлениеВетер, м/сВероятность осадков
    02:00Ясно и безоблачно+26°C87 %756 мм4.1 м/с0 %
    05:00Ясно и безоблачно+26°C88 %756 мм4.4 м/с0 %
    08:00Ясно и безоблачно+27°C83 %757 мм4.6 м/с0 %
    11:00Ясно и безоблачно+30°C72 %757 мм6.0 м/с0 %
    14:00Ясно и безоблачно+31°C72 %756 мм7.1 м/с0 %
    17:00Ясно и безоблачно+30°C74 %756 мм7.3 м/с0 %
    20:00Ясно и безоблачно+29°C82 %756 мм5.8 м/с0 %
    23:00Ясно и безоблачно+28°C83 %756 мм5.0 м/с0 %
  • 19июля
    Пятница
    +25°
    +32°
    Ясно и безоблачно
    ВремяПогодаТемператураВлажностьДавлениеВетер, м/сВероятность осадков
    02:00Ясно и безоблачно+27°C80 %755 мм4.4 м/с0 %
    05:00Ясно и безоблачно+26°C84 %755 мм4.8 м/с0 %
    08:00Ясно и безоблачно+27°C79 %755 мм5.0 м/с0 %
    11:00Ясно и безоблачно+30°C70 %755 мм6.6 м/с0 %
    14:00Ясно и безоблачно+32°C68 %755 мм8.8 м/с0 %
    17:00Ясно и безоблачно+31°C60 %754 мм9.1 м/с0 %
    20:00Ясно и безоблачно+29°C67 %754 мм7.6 м/с0 %
    23:00Ясно и безоблачно+27°C75 %754 мм5.7 м/с0 %
  • 20июля
    Суббота
    +25°
    +32°
    Ясно и безоблачно
    ВремяПогодаТемператураВлажностьДавлениеВетер, м/сВероятность осадков
    02:00Ясно и безоблачно+26°C82 %753 мм4.6 м/с0 %
    05:00Ясно и безоблачно+26°C85 %753 мм4.9 м/с0 %
    08:00Ясно и безоблачно+27°C76 %753 мм5.4 м/с0 %
    11:00Ясно и безоблачно+30°C68 %754 мм6.4 м/с0 %
    14:00Ясно и безоблачно+32°C69 %753 мм7.8 м/с0 %
    17:00Ясно и безоблачно+31°C72 %753 мм7.7 м/с0 %
    20:00Ясно и безоблачно+28°C76 %754 мм6.3 м/с0 %
    23:00Ясно и безоблачно+27°C79 %754 мм5.6 м/с0 %
  • 21июля
    Воскресенье
    +25°
    +32°
    Ясно и безоблачно
    ВремяПогодаТемператураВлажностьДавлениеВетер, м/сВероятность осадков
    02:00Ясно и безоблачно+26°C89 %754 мм5.0 м/с0 %
    05:00Ясно и безоблачно+26°C87 %754 мм4.8 м/с0 %
    08:00Ясно и безоблачно+27°C86 %755 мм4.9 м/с0 %
    11:00Практически безоблачно+30°C79 %756 мм6.3 м/с0 %
    14:00Ясно и безоблачно+31°C79 %756 мм6.8 м/с0 %
    17:00Ясно и безоблачно+30°C82 %755 мм6.6 м/с0 %
    20:00Ясно и безоблачно+28°C89 %755 мм5.0 м/с0 %
    23:00Ясно и безоблачно+28°C89 %756 мм4.9 м/с0 %
  • 22июля
    Понедельник
    +25°
    +33°
    Ясно и безоблачно
    ВремяПогодаТемператураВлажностьДавлениеВетер, м/сВероятность осадков
    02:00Ясно и безоблачно+27°C93 %755 мм4.4 м/с0 %
    05:00Ясно и безоблачно+26°C93 %755 мм4.7 м/с0 %
    08:00Ясно и безоблачно+27°C85 %756 мм4.3 м/с0 %
    11:00Ясно и безоблачно+31°C68 %757 мм5.6 м/с0 %
    14:00Ясно и безоблачно+32°C66 %756 мм6.1 м/с0 %
    17:00Ясно и безоблачно+31°C71 %755 мм5.3 м/с0 %
    20:00Ясно и безоблачно+29°C80 %756 мм5.2 м/с0 %
    23:00Ясно и безоблачно+27°C92 %756 мм3.7 м/с0 %
Мы используем cookies
Соглашаюсь